sensor_id;sensor_type;location;lat;lon;timestamp;P1;durP1;ratioP1;P2;durP2;ratioP2
30133;SDS011;16946;49.984;10.672;2023-05-07T00:00:12;3.20;;;2.90;;
30133;SDS011;16946;49.984;10.672;2023-05-07T00:00:45;3.20;;;2.90;;
30133;SDS011;16946;49.984;10.672;2023-05-07T00:01:16;4.23;;;2.97;;
30133;SDS011;16946;49.984;10.672;2023-05-07T00:01:46;3.30;;;2.80;;
30133;SDS011;16946;49.984;10.672;2023-05-07T00:02:17;4.33;;;3.10;;
30133;SDS011;16946;49.984;10.672;2023-05-07T00:02:47;3.30;;;2.97;;
30133;SDS011;16946;49.984;10.672;2023-05-07T00:03:18;3.23;;;2.90;;
30133;SDS011;16946;49.984;10.672;2023-05-07T00:03:49;3.03;;;2.77;;
30133;SDS011;16946;49.984;10.672;2023-05-07T00:04:19;4.03;;;3.03;;
30133;SDS011;16946;49.984;10.672;2023-05-07T00:04:50;5.28;;;3.50;;
30133;SDS011;16946;49.984;10.672;2023-05-07T00:05:21;5.05;;;3.13;;
30133;SDS011;16946;49.984;10.672;2023-05-07T00:05:52;3.60;;;2.60;;
30133;SDS011;16946;49.984;10.672;2023-05-07T00:06:22;6.13;;;3.13;;
30133;SDS011;16946;49.984;10.672;2023-05-07T00:06:54;5.03;;;3.38;;
30133;SDS011;16946;49.984;10.672;2023-05-07T00:07:25;4.15;;;3.10;;
30133;SDS011;16946;49.984;10.672;2023-05-07T00:07:56;4.17;;;3.23;;
30133;SDS011;16946;49.984;10.672;2023-05-07T00:08:26;4.77;;;3.53;;
30133;SDS011;16946;49.984;10.672;2023-05-07T00:08:57;3.67;;;3.07;;
30133;SDS011;16946;49.984;10.672;2023-05-07T00:09:28;3.60;;;3.17;;
30133;SDS011;16946;49.984;10.672;2023-05-07T00:09:58;4.80;;;3.40;;
30133;SDS011;16946;49.984;10.672;2023-05-07T00:10:29;3.47;;;3.00;;
30133;SDS011;16946;49.984;10.672;2023-05-07T00:10:59;6.03;;;3.47;;
30133;SDS011;16946;49.984;10.672;2023-05-07T00:11:30;3.47;;;3.17;;
30133;SDS011;16946;49.984;10.672;2023-05-07T00:12:01;3.30;;;3.00;;
30133;SDS011;16946;49.984;10.672;2023-05-07T00:12:32;3.60;;;3.30;;
30133;SDS011;16946;49.984;10.672;2023-05-07T00:13:05;5.50;;;3.88;;
30133;SDS011;16946;49.984;10.672;2023-05-07T00:13:36;4.27;;;3.17;;
30133;SDS011;16946;49.984;10.672;2023-05-07T00:14:06;4.53;;;3.23;;
30133;SDS011;16946;49.984;10.672;2023-05-07T00:14:37;3.60;;;3.00;;
30133;SDS011;16946;49.984;10.672;2023-05-07T00:15:08;4.57;;;3.77;;
30133;SDS011;16946;49.984;10.672;2023-05-07T00:15:38;5.47;;;3.47;;
30133;SDS011;16946;49.984;10.672;2023-05-07T00:16:09;5.83;;;3.40;;
30133;SDS011;16946;49.984;10.672;2023-05-07T00:16:39;4.33;;;3.53;;
30133;SDS011;16946;49.984;10.672;2023-05-07T00:17:10;6.53;;;3.90;;
30133;SDS011;16946;49.984;10.672;2023-05-07T00:17:41;5.43;;;3.87;;
30133;SDS011;16946;49.984;10.672;2023-05-07T00:18:11;3.80;;;3.43;;
30133;SDS011;16946;49.984;10.672;2023-05-07T00:18:42;3.90;;;3.20;;
30133;SDS011;16946;49.984;10.672;2023-05-07T00:19:12;3.90;;;3.60;;
30133;SDS011;16946;49.984;10.672;2023-05-07T00:19:43;3.80;;;3.33;;
30133;SDS011;16946;49.984;10.672;2023-05-07T00:20:13;5.33;;;3.73;;
30133;SDS011;16946;49.984;10.672;2023-05-07T00:20:44;5.97;;;4.10;;
30133;SDS011;16946;49.984;10.672;2023-05-07T00:21:14;4.43;;;3.33;;
30133;SDS011;16946;49.984;10.672;2023-05-07T00:21:45;4.43;;;3.77;;
30133;SDS011;16946;49.984;10.672;2023-05-07T00:22:16;3.85;;;3.45;;
30133;SDS011;16946;49.984;10.672;2023-05-07T00:22:47;6.13;;;3.80;;
30133;SDS011;16946;49.984;10.672;2023-05-07T00:23:17;5.27;;;3.40;;
30133;SDS011;16946;49.984;10.672;2023-05-07T00:23:48;3.87;;;3.40;;
30133;SDS011;16946;49.984;10.672;2023-05-07T00:24:18;3.60;;;3.30;;
30133;SDS011;16946;49.984;10.672;2023-05-07T00:24:49;3.67;;;3.37;;
30133;SDS011;16946;49.984;10.672;2023-05-07T00:25:19;5.80;;;3.40;;
30133;SDS011;16946;49.984;10.672;2023-05-07T00:25:50;3.83;;;3.43;;
30133;SDS011;16946;49.984;10.672;2023-05-07T00:26:21;4.00;;;3.30;;
30133;SDS011;16946;49.984;10.672;2023-05-07T00:26:52;4.45;;;3.60;;
30133;SDS011;16946;49.984;10.672;2023-05-07T00:27:22;3.97;;;3.23;;
30133;SDS011;16946;49.984;10.672;2023-05-07T00:27:53;3.80;;;3.50;;
30133;SDS011;16946;49.984;10.672;2023-05-07T00:28:24;3.67;;;3.33;;
30133;SDS011;16946;49.984;10.672;2023-05-07T00:28:54;4.93;;;3.70;;
30133;SDS011;16946;49.984;10.672;2023-05-07T00:29:25;4.80;;;3.60;;
30133;SDS011;16946;49.984;10.672;2023-05-07T00:29:55;4.53;;;3.40;;
30133;SDS011;16946;49.984;10.672;2023-05-07T00:30:26;3.63;;;3.13;;
30133;SDS011;16946;49.984;10.672;2023-05-07T00:30:56;4.90;;;3.50;;
30133;SDS011;16946;49.984;10.672;2023-05-07T00:31:27;3.57;;;3.20;;
30133;SDS011;16946;49.984;10.672;2023-05-07T00:31:57;3.70;;;3.40;;
30133;SDS011;16946;49.984;10.672;2023-05-07T00:32:28;5.80;;;3.30;;
30133;SDS011;16946;49.984;10.672;2023-05-07T00:32:58;3.87;;;3.57;;
30133;SDS011;16946;49.984;10.672;2023-05-07T00:33:29;5.23;;;3.40;;
30133;SDS011;16946;49.984;10.672;2023-05-07T00:33:59;4.43;;;4.03;;
30133;SDS011;16946;49.984;10.672;2023-05-07T00:34:30;4.13;;;3.47;;
30133;SDS011;16946;49.984;10.672;2023-05-07T00:35:01;4.83;;;3.60;;
30133;SDS011;16946;49.984;10.672;2023-05-07T00:35:31;5.27;;;3.80;;
30133;SDS011;16946;49.984;10.672;2023-05-07T00:36:02;4.07;;;3.57;;
30133;SDS011;16946;49.984;10.672;2023-05-07T00:36:32;6.13;;;4.00;;
30133;SDS011;16946;49.984;10.672;2023-05-07T00:37:03;4.60;;;3.70;;
30133;SDS011;16946;49.984;10.672;2023-05-07T00:37:34;4.27;;;3.47;;
30133;SDS011;16946;49.984;10.672;2023-05-07T00:38:04;4.10;;;3.70;;
30133;SDS011;16946;49.984;10.672;2023-05-07T00:38:35;5.20;;;4.03;;
30133;SDS011;16946;49.984;10.672;2023-05-07T00:39:05;4.23;;;3.83;;
30133;SDS011;16946;49.984;10.672;2023-05-07T00:39:36;4.63;;;3.72;;
30133;SDS011;16946;49.984;10.672;2023-05-07T00:40:07;5.63;;;3.60;;
30133;SDS011;16946;49.984;10.672;2023-05-07T00:40:38;4.22;;;3.83;;
30133;SDS011;16946;49.984;10.672;2023-05-07T00:41:08;4.17;;;3.80;;
30133;SDS011;16946;49.984;10.672;2023-05-07T00:41:39;4.73;;;4.33;;
30133;SDS011;16946;49.984;10.672;2023-05-07T00:42:10;4.17;;;3.77;;
30133;SDS011;16946;49.984;10.672;2023-05-07T00:42:40;4.57;;;3.53;;
30133;SDS011;16946;49.984;10.672;2023-05-07T00:43:11;6.33;;;3.97;;
30133;SDS011;16946;49.984;10.672;2023-05-07T00:43:42;5.57;;;3.83;;
30133;SDS011;16946;49.984;10.672;2023-05-07T00:44:13;6.23;;;4.20;;
30133;SDS011;16946;49.984;10.672;2023-05-07T00:44:44;4.30;;;3.50;;
30133;SDS011;16946;49.984;10.672;2023-05-07T00:45:15;3.93;;;3.30;;
30133;SDS011;16946;49.984;10.672;2023-05-07T00:45:46;3.90;;;3.60;;
30133;SDS011;16946;49.984;10.672;2023-05-07T00:46:17;4.10;;;3.80;;
30133;SDS011;16946;49.984;10.672;2023-05-07T00:46:50;4.30;;;3.83;;
30133;SDS011;16946;49.984;10.672;2023-05-07T00:47:21;3.93;;;3.63;;
30133;SDS011;16946;49.984;10.672;2023-05-07T00:47:53;4.77;;;4.27;;
30133;SDS011;16946;49.984;10.672;2023-05-07T00:48:25;6.35;;;3.88;;
30133;SDS011;16946;49.984;10.672;2023-05-07T00:48:56;4.20;;;3.67;;
30133;SDS011;16946;49.984;10.672;2023-05-07T00:49:31;3.92;;;3.63;;
30133;SDS011;16946;49.984;10.672;2023-05-07T00:50:08;4.07;;;3.67;;
30133;SDS011;16946;49.984;10.672;2023-05-07T00:50:40;5.63;;;3.72;;
30133;SDS011;16946;49.984;10.672;2023-05-07T00:51:11;3.73;;;3.43;;
30133;SDS011;16946;49.984;10.672;2023-05-07T00:51:42;4.63;;;3.80;;
30133;SDS011;16946;49.984;10.672;2023-05-07T00:52:13;4.77;;;4.10;;
30133;SDS011;16946;49.984;10.672;2023-05-07T00:52:45;4.45;;;3.60;;
30133;SDS011;16946;49.984;10.672;2023-05-07T00:53:16;3.80;;;3.50;;
30133;SDS011;16946;49.984;10.672;2023-05-07T00:53:46;4.20;;;3.80;;
30133;SDS011;16946;49.984;10.672;2023-05-07T00:54:18;4.70;;;4.20;;
30133;SDS011;16946;49.984;10.672;2023-05-07T00:54:49;4.38;;;3.97;;
30133;SDS011;16946;49.984;10.672;2023-05-07T00:55:20;4.57;;;4.17;;
30133;SDS011;16946;49.984;10.672;2023-05-07T00:55:51;4.50;;;4.10;;
30133;SDS011;16946;49.984;10.672;2023-05-07T00:56:22;4.63;;;4.22;;
30133;SDS011;16946;49.984;10.672;2023-05-07T00:56:53;4.30;;;4.00;;
30133;SDS011;16946;49.984;10.672;2023-05-07T00:57:25;5.38;;;4.55;;
30133;SDS011;16946;49.984;10.672;2023-05-07T00:57:55;5.10;;;4.60;;
30133;SDS011;16946;49.984;10.672;2023-05-07T00:58:26;5.47;;;4.53;;
30133;SDS011;16946;49.984;10.672;2023-05-07T00:58:57;4.47;;;4.10;;
30133;SDS011;16946;49.984;10.672;2023-05-07T00:59:27;5.13;;;4.73;;
30133;SDS011;16946;49.984;10.672;2023-05-07T00:59:58;5.63;;;5.13;;
30133;SDS011;16946;49.984;10.672;2023-05-07T01:00:28;5.13;;;4.60;;
30133;SDS011;16946;49.984;10.672;2023-05-07T01:00:59;5.73;;;4.90;;
30133;SDS011;16946;49.984;10.672;2023-05-07T01:01:30;5.40;;;4.80;;
30133;SDS011;16946;49.984;10.672;2023-05-07T01:02:01;5.60;;;5.00;;
30133;SDS011;16946;49.984;10.672;2023-05-07T01:02:32;5.10;;;4.63;;
30133;SDS011;16946;49.984;10.672;2023-05-07T01:03:03;5.30;;;4.90;;
30133;SDS011;16946;49.984;10.672;2023-05-07T01:03:34;4.93;;;4.43;;
30133;SDS011;16946;49.984;10.672;2023-05-07T01:04:05;5.70;;;4.97;;
30133;SDS011;16946;49.984;10.672;2023-05-07T01:04:35;5.20;;;4.70;;
30133;SDS011;16946;49.984;10.672;2023-05-07T01:05:07;6.50;;;5.13;;
30133;SDS011;16946;49.984;10.672;2023-05-07T01:05:42;5.32;;;4.93;;
30133;SDS011;16946;49.984;10.672;2023-05-07T01:06:15;5.90;;;5.30;;
30133;SDS011;16946;49.984;10.672;2023-05-07T01:06:47;6.03;;;5.10;;
30133;SDS011;16946;49.984;10.672;2023-05-07T01:07:18;6.07;;;5.17;;
30133;SDS011;16946;49.984;10.672;2023-05-07T01:07:48;5.80;;;5.30;;
30133;SDS011;16946;49.984;10.672;2023-05-07T01:08:21;6.90;;;5.63;;
30133;SDS011;16946;49.984;10.672;2023-05-07T01:08:52;6.03;;;5.45;;
30133;SDS011;16946;49.984;10.672;2023-05-07T01:09:26;6.50;;;5.90;;
30133;SDS011;16946;49.984;10.672;2023-05-07T01:09:58;6.80;;;5.55;;
30133;SDS011;16946;49.984;10.672;2023-05-07T01:10:29;6.07;;;5.38;;
30133;SDS011;16946;49.984;10.672;2023-05-07T01:11:00;5.88;;;5.28;;
30133;SDS011;16946;49.984;10.672;2023-05-07T01:11:31;6.33;;;5.73;;
30133;SDS011;16946;49.984;10.672;2023-05-07T01:12:02;7.60;;;5.53;;
30133;SDS011;16946;49.984;10.672;2023-05-07T01:12:34;6.35;;;5.28;;
30133;SDS011;16946;49.984;10.672;2023-05-07T01:13:05;5.95;;;5.45;;
30133;SDS011;16946;49.984;10.672;2023-05-07T01:13:36;8.40;;;6.27;;
30133;SDS011;16946;49.984;10.672;2023-05-07T01:14:08;6.47;;;5.88;;
30133;SDS011;16946;49.984;10.672;2023-05-07T01:14:39;6.82;;;6.18;;
30133;SDS011;16946;49.984;10.672;2023-05-07T01:15:10;6.37;;;5.77;;
30133;SDS011;16946;49.984;10.672;2023-05-07T01:15:40;6.10;;;5.60;;
30133;SDS011;16946;49.984;10.672;2023-05-07T01:16:11;6.27;;;5.73;;
30133;SDS011;16946;49.984;10.672;2023-05-07T01:16:42;6.43;;;5.87;;
30133;SDS011;16946;49.984;10.672;2023-05-07T01:17:12;5.93;;;5.33;;
30133;SDS011;16946;49.984;10.672;2023-05-07T01:17:43;6.10;;;5.43;;
30133;SDS011;16946;49.984;10.672;2023-05-07T01:18:14;6.72;;;6.05;;
30133;SDS011;16946;49.984;10.672;2023-05-07T01:18:45;6.80;;;6.20;;
30133;SDS011;16946;49.984;10.672;2023-05-07T01:19:18;6.35;;;5.68;;
30133;SDS011;16946;49.984;10.672;2023-05-07T01:19:49;9.45;;;5.95;;
30133;SDS011;16946;49.984;10.672;2023-05-07T01:20:20;5.90;;;5.33;;
30133;SDS011;16946;49.984;10.672;2023-05-07T01:20:51;5.87;;;5.37;;
30133;SDS011;16946;49.984;10.672;2023-05-07T01:21:25;5.40;;;4.90;;
30133;SDS011;16946;49.984;10.672;2023-05-07T01:21:59;5.60;;;4.70;;
30133;SDS011;16946;49.984;10.672;2023-05-07T01:22:34;5.20;;;4.70;;
30133;SDS011;16946;49.984;10.672;2023-05-07T01:23:08;6.78;;;5.38;;
30133;SDS011;16946;49.984;10.672;2023-05-07T01:23:41;4.70;;;4.30;;
30133;SDS011;16946;49.984;10.672;2023-05-07T01:24:11;5.13;;;4.63;;
30133;SDS011;16946;49.984;10.672;2023-05-07T01:24:42;5.40;;;4.90;;
30133;SDS011;16946;49.984;10.672;2023-05-07T01:25:13;5.50;;;5.00;;
30133;SDS011;16946;49.984;10.672;2023-05-07T01:25:52;5.35;;;4.85;;
30133;SDS011;16946;49.984;10.672;2023-05-07T01:26:23;6.50;;;5.88;;
30133;SDS011;16946;49.984;10.672;2023-05-07T01:26:53;6.80;;;5.73;;
30133;SDS011;16946;49.984;10.672;2023-05-07T01:27:24;6.50;;;5.27;;
30133;SDS011;16946;49.984;10.672;2023-05-07T01:27:55;5.53;;;5.03;;
30133;SDS011;16946;49.984;10.672;2023-05-07T01:28:25;6.13;;;5.53;;
30133;SDS011;16946;49.984;10.672;2023-05-07T01:28:56;6.30;;;5.70;;
30133;SDS011;16946;49.984;10.672;2023-05-07T01:29:27;6.30;;;5.33;;
30133;SDS011;16946;49.984;10.672;2023-05-07T01:29:58;5.65;;;4.97;;
30133;SDS011;16946;49.984;10.672;2023-05-07T01:30:29;6.30;;;5.70;;
30133;SDS011;16946;49.984;10.672;2023-05-07T01:31:01;5.35;;;4.95;;
30133;SDS011;16946;49.984;10.672;2023-05-07T01:31:34;5.45;;;5.05;;
30133;SDS011;16946;49.984;10.672;2023-05-07T01:32:05;6.45;;;5.85;;
30133;SDS011;16946;49.984;10.672;2023-05-07T01:32:42;6.45;;;5.88;;
30133;SDS011;16946;49.984;10.672;2023-05-07T01:33:17;5.88;;;5.38;;
30133;SDS011;16946;49.984;10.672;2023-05-07T01:33:51;7.00;;;6.07;;
30133;SDS011;16946;49.984;10.672;2023-05-07T01:34:22;6.38;;;5.78;;
30133;SDS011;16946;49.984;10.672;2023-05-07T01:34:54;6.43;;;5.93;;
30133;SDS011;16946;49.984;10.672;2023-05-07T01:35:29;7.15;;;6.45;;
30133;SDS011;16946;49.984;10.672;2023-05-07T01:36:04;7.05;;;6.38;;
30133;SDS011;16946;49.984;10.672;2023-05-07T01:36:37;6.90;;;6.25;;
30133;SDS011;16946;49.984;10.672;2023-05-07T01:37:09;6.43;;;5.93;;
30133;SDS011;16946;49.984;10.672;2023-05-07T01:37:40;7.20;;;6.60;;
30133;SDS011;16946;49.984;10.672;2023-05-07T01:38:11;7.25;;;6.55;;
30133;SDS011;16946;49.984;10.672;2023-05-07T01:38:43;6.43;;;5.80;;
30133;SDS011;16946;49.984;10.672;2023-05-07T01:39:14;6.25;;;5.75;;
30133;SDS011;16946;49.984;10.672;2023-05-07T01:39:45;6.72;;;6.00;;
30133;SDS011;16946;49.984;10.672;2023-05-07T01:40:17;7.00;;;6.40;;
30133;SDS011;16946;49.984;10.672;2023-05-07T01:40:48;7.28;;;6.57;;
30133;SDS011;16946;49.984;10.672;2023-05-07T01:41:19;7.50;;;6.67;;
30133;SDS011;16946;49.984;10.672;2023-05-07T01:41:49;7.20;;;6.53;;
30133;SDS011;16946;49.984;10.672;2023-05-07T01:42:20;7.13;;;6.50;;
30133;SDS011;16946;49.984;10.672;2023-05-07T01:42:51;6.88;;;6.25;;
30133;SDS011;16946;49.984;10.672;2023-05-07T01:43:23;6.90;;;6.30;;
30133;SDS011;16946;49.984;10.672;2023-05-07T01:43:54;8.30;;;6.93;;
30133;SDS011;16946;49.984;10.672;2023-05-07T01:44:25;7.10;;;6.50;;
30133;SDS011;16946;49.984;10.672;2023-05-07T01:44:56;7.13;;;6.53;;
30133;SDS011;16946;49.984;10.672;2023-05-07T01:45:27;6.87;;;6.23;;
30133;SDS011;16946;49.984;10.672;2023-05-07T01:45:59;7.30;;;6.70;;
30133;SDS011;16946;49.984;10.672;2023-05-07T01:46:31;7.47;;;6.78;;
30133;SDS011;16946;49.984;10.672;2023-05-07T01:47:02;8.63;;;7.15;;
30133;SDS011;16946;49.984;10.672;2023-05-07T01:47:33;12.32;;;7.70;;
30133;SDS011;16946;49.984;10.672;2023-05-07T01:48:06;7.30;;;6.70;;
30133;SDS011;16946;49.984;10.672;2023-05-07T01:48:37;7.75;;;7.05;;
30133;SDS011;16946;49.984;10.672;2023-05-07T01:49:08;8.07;;;7.13;;
30133;SDS011;16946;49.984;10.672;2023-05-07T01:49:39;7.90;;;7.30;;
30133;SDS011;16946;49.984;10.672;2023-05-07T01:50:10;8.32;;;7.53;;
30133;SDS011;16946;49.984;10.672;2023-05-07T01:50:43;7.57;;;6.97;;
30133;SDS011;16946;49.984;10.672;2023-05-07T01:51:14;7.78;;;7.07;;
30133;SDS011;16946;49.984;10.672;2023-05-07T01:51:45;8.33;;;7.07;;
30133;SDS011;16946;49.984;10.672;2023-05-07T01:52:16;7.95;;;7.25;;
30133;SDS011;16946;49.984;10.672;2023-05-07T01:52:47;7.20;;;6.50;;
30133;SDS011;16946;49.984;10.672;2023-05-07T01:53:20;8.00;;;7.30;;
30133;SDS011;16946;49.984;10.672;2023-05-07T01:53:52;7.47;;;6.77;;
30133;SDS011;16946;49.984;10.672;2023-05-07T01:54:26;7.97;;;7.28;;
30133;SDS011;16946;49.984;10.672;2023-05-07T01:54:57;7.45;;;6.88;;
30133;SDS011;16946;49.984;10.672;2023-05-07T01:55:28;6.87;;;6.27;;
30133;SDS011;16946;49.984;10.672;2023-05-07T01:55:58;7.43;;;6.83;;
30133;SDS011;16946;49.984;10.672;2023-05-07T01:56:30;7.38;;;6.70;;
30133;SDS011;16946;49.984;10.672;2023-05-07T01:57:00;7.40;;;6.70;;
30133;SDS011;16946;49.984;10.672;2023-05-07T01:57:31;7.37;;;6.77;;
30133;SDS011;16946;49.984;10.672;2023-05-07T01:58:02;7.60;;;7.00;;
30133;SDS011;16946;49.984;10.672;2023-05-07T01:58:33;7.47;;;6.78;;
30133;SDS011;16946;49.984;10.672;2023-05-07T01:59:03;8.30;;;7.50;;
30133;SDS011;16946;49.984;10.672;2023-05-07T01:59:35;7.57;;;6.97;;
30133;SDS011;16946;49.984;10.672;2023-05-07T02:00:05;8.43;;;7.63;;
30133;SDS011;16946;49.984;10.672;2023-05-07T02:00:36;8.27;;;7.47;;
30133;SDS011;16946;49.984;10.672;2023-05-07T02:01:07;8.20;;;7.40;;
30133;SDS011;16946;49.984;10.672;2023-05-07T02:01:37;8.97;;;7.20;;
30133;SDS011;16946;49.984;10.672;2023-05-07T02:02:08;8.17;;;7.47;;
30133;SDS011;16946;49.984;10.672;2023-05-07T02:02:39;8.07;;;7.17;;
30133;SDS011;16946;49.984;10.672;2023-05-07T02:03:09;7.93;;;7.30;;
30133;SDS011;16946;49.984;10.672;2023-05-07T02:03:40;8.40;;;7.60;;
30133;SDS011;16946;49.984;10.672;2023-05-07T02:04:10;8.60;;;7.80;;
30133;SDS011;16946;49.984;10.672;2023-05-07T02:04:41;8.17;;;7.47;;
30133;SDS011;16946;49.984;10.672;2023-05-07T02:05:11;8.60;;;7.77;;
30133;SDS011;16946;49.984;10.672;2023-05-07T02:05:42;8.33;;;7.63;;
30133;SDS011;16946;49.984;10.672;2023-05-07T02:06:12;8.07;;;7.30;;
30133;SDS011;16946;49.984;10.672;2023-05-07T02:06:43;8.70;;;7.60;;
30133;SDS011;16946;49.984;10.672;2023-05-07T02:07:13;8.43;;;7.73;;
30133;SDS011;16946;49.984;10.672;2023-05-07T02:07:44;8.40;;;7.70;;
30133;SDS011;16946;49.984;10.672;2023-05-07T02:08:14;8.17;;;7.37;;
30133;SDS011;16946;49.984;10.672;2023-05-07T02:08:47;8.90;;;7.80;;
30133;SDS011;16946;49.984;10.672;2023-05-07T02:09:17;7.97;;;7.28;;
30133;SDS011;16946;49.984;10.672;2023-05-07T02:09:48;7.10;;;6.50;;
30133;SDS011;16946;49.984;10.672;2023-05-07T02:10:18;8.23;;;7.63;;
30133;SDS011;16946;49.984;10.672;2023-05-07T02:10:49;8.33;;;7.50;;
30133;SDS011;16946;49.984;10.672;2023-05-07T02:11:21;8.20;;;7.50;;
30133;SDS011;16946;49.984;10.672;2023-05-07T02:11:51;8.07;;;7.37;;
30133;SDS011;16946;49.984;10.672;2023-05-07T02:12:22;8.33;;;7.53;;
30133;SDS011;16946;49.984;10.672;2023-05-07T02:12:53;8.80;;;8.03;;
30133;SDS011;16946;49.984;10.672;2023-05-07T02:13:23;8.87;;;8.03;;
30133;SDS011;16946;49.984;10.672;2023-05-07T02:13:54;8.63;;;7.77;;
30133;SDS011;16946;49.984;10.672;2023-05-07T02:14:25;7.53;;;6.93;;
30133;SDS011;16946;49.984;10.672;2023-05-07T02:14:56;8.60;;;7.73;;
30133;SDS011;16946;49.984;10.672;2023-05-07T02:15:26;8.03;;;7.43;;
30133;SDS011;16946;49.984;10.672;2023-05-07T02:15:57;8.53;;;7.53;;
30133;SDS011;16946;49.984;10.672;2023-05-07T02:16:27;7.87;;;7.00;;
30133;SDS011;16946;49.984;10.672;2023-05-07T02:16:58;8.43;;;7.63;;
30133;SDS011;16946;49.984;10.672;2023-05-07T02:17:28;8.97;;;8.07;;
30133;SDS011;16946;49.984;10.672;2023-05-07T02:18:02;8.43;;;7.57;;
30133;SDS011;16946;49.984;10.672;2023-05-07T02:18:34;7.75;;;7.13;;
30133;SDS011;16946;49.984;10.672;2023-05-07T02:19:05;8.43;;;7.63;;
30133;SDS011;16946;49.984;10.672;2023-05-07T02:19:36;8.87;;;8.07;;
30133;SDS011;16946;49.984;10.672;2023-05-07T02:20:07;10.00;;;8.77;;
30133;SDS011;16946;49.984;10.672;2023-05-07T02:20:43;11.15;;;7.68;;
30133;SDS011;16946;49.984;10.672;2023-05-07T02:21:13;9.97;;;9.00;;
30133;SDS011;16946;49.984;10.672;2023-05-07T02:21:44;8.80;;;8.00;;
30133;SDS011;16946;49.984;10.672;2023-05-07T02:22:14;9.23;;;8.43;;
30133;SDS011;16946;49.984;10.672;2023-05-07T02:22:45;8.30;;;7.60;;
30133;SDS011;16946;49.984;10.672;2023-05-07T02:23:16;9.00;;;8.10;;
30133;SDS011;16946;49.984;10.672;2023-05-07T02:23:46;8.83;;;7.97;;
30133;SDS011;16946;49.984;10.672;2023-05-07T02:24:17;9.10;;;8.27;;
30133;SDS011;16946;49.984;10.672;2023-05-07T02:24:47;8.83;;;8.10;;
30133;SDS011;16946;49.984;10.672;2023-05-07T02:25:19;8.70;;;7.90;;
30133;SDS011;16946;49.984;10.672;2023-05-07T02:25:49;8.60;;;7.80;;
30133;SDS011;16946;49.984;10.672;2023-05-07T02:26:20;8.70;;;7.90;;
30133;SDS011;16946;49.984;10.672;2023-05-07T02:26:51;9.38;;;8.57;;
30133;SDS011;16946;49.984;10.672;2023-05-07T02:27:21;9.10;;;8.03;;
30133;SDS011;16946;49.984;10.672;2023-05-07T02:27:52;9.00;;;8.20;;
30133;SDS011;16946;49.984;10.672;2023-05-07T02:28:23;9.00;;;8.20;;
30133;SDS011;16946;49.984;10.672;2023-05-07T02:28:53;9.53;;;8.63;;
30133;SDS011;16946;49.984;10.672;2023-05-07T02:29:24;9.00;;;8.30;;
30133;SDS011;16946;49.984;10.672;2023-05-07T02:29:54;8.53;;;7.83;;
30133;SDS011;16946;49.984;10.672;2023-05-07T02:30:25;8.80;;;8.00;;
30133;SDS011;16946;49.984;10.672;2023-05-07T02:30:56;9.60;;;8.70;;
30133;SDS011;16946;49.984;10.672;2023-05-07T02:31:28;8.55;;;7.82;;
30133;SDS011;16946;49.984;10.672;2023-05-07T02:31:58;8.87;;;7.97;;
30133;SDS011;16946;49.984;10.672;2023-05-07T02:32:29;9.20;;;8.30;;
30133;SDS011;16946;49.984;10.672;2023-05-07T02:33:00;8.43;;;7.70;;
30133;SDS011;16946;49.984;10.672;2023-05-07T02:33:30;9.83;;;8.10;;
30133;SDS011;16946;49.984;10.672;2023-05-07T02:34:01;9.30;;;8.40;;
30133;SDS011;16946;49.984;10.672;2023-05-07T02:34:31;8.57;;;7.77;;
30133;SDS011;16946;49.984;10.672;2023-05-07T02:35:02;8.73;;;8.03;;
30133;SDS011;16946;49.984;10.672;2023-05-07T02:35:33;9.63;;;8.20;;
30133;SDS011;16946;49.984;10.672;2023-05-07T02:36:09;8.93;;;8.13;;
30133;SDS011;16946;49.984;10.672;2023-05-07T02:36:41;9.45;;;8.15;;
30133;SDS011;16946;49.984;10.672;2023-05-07T02:37:11;8.60;;;7.90;;
30133;SDS011;16946;49.984;10.672;2023-05-07T02:37:42;8.70;;;7.90;;
30133;SDS011;16946;49.984;10.672;2023-05-07T02:38:13;9.77;;;8.80;;
30133;SDS011;16946;49.984;10.672;2023-05-07T02:38:43;9.57;;;8.67;;
30133;SDS011;16946;49.984;10.672;2023-05-07T02:39:14;8.83;;;8.03;;
30133;SDS011;16946;49.984;10.672;2023-05-07T02:39:45;9.00;;;8.30;;
30133;SDS011;16946;49.984;10.672;2023-05-07T02:40:15;9.37;;;8.57;;
30133;SDS011;16946;49.984;10.672;2023-05-07T02:40:46;9.60;;;8.80;;
30133;SDS011;16946;49.984;10.672;2023-05-07T02:41:16;9.47;;;8.50;;
30133;SDS011;16946;49.984;10.672;2023-05-07T02:41:47;9.30;;;8.40;;
30133;SDS011;16946;49.984;10.672;2023-05-07T02:42:17;9.33;;;8.53;;
30133;SDS011;16946;49.984;10.672;2023-05-07T02:42:48;10.40;;;9.50;;
30133;SDS011;16946;49.984;10.672;2023-05-07T02:43:18;9.37;;;8.57;;
30133;SDS011;16946;49.984;10.672;2023-05-07T02:43:49;10.10;;;8.83;;
30133;SDS011;16946;49.984;10.672;2023-05-07T02:44:19;9.33;;;8.63;;
30133;SDS011;16946;49.984;10.672;2023-05-07T02:44:50;10.53;;;8.40;;
30133;SDS011;16946;49.984;10.672;2023-05-07T02:45:20;10.57;;;9.53;;
30133;SDS011;16946;49.984;10.672;2023-05-07T02:46:04;9.90;;;9.10;;
30133;SDS011;16946;49.984;10.672;2023-05-07T02:46:35;10.18;;;9.20;;
30133;SDS011;16946;49.984;10.672;2023-05-07T02:47:06;11.07;;;10.07;;
30133;SDS011;16946;49.984;10.672;2023-05-07T02:47:38;10.25;;;9.35;;
30133;SDS011;16946;49.984;10.672;2023-05-07T02:48:09;10.60;;;9.60;;
30133;SDS011;16946;49.984;10.672;2023-05-07T02:48:39;10.33;;;9.43;;
30133;SDS011;16946;49.984;10.672;2023-05-07T02:49:10;11.20;;;10.20;;
30133;SDS011;16946;49.984;10.672;2023-05-07T02:49:40;10.60;;;9.50;;
30133;SDS011;16946;49.984;10.672;2023-05-07T02:50:11;10.13;;;9.33;;
30133;SDS011;16946;49.984;10.672;2023-05-07T02:50:42;10.03;;;9.13;;
30133;SDS011;16946;49.984;10.672;2023-05-07T02:51:12;12.13;;;9.73;;
30133;SDS011;16946;49.984;10.672;2023-05-07T02:51:43;10.47;;;9.37;;
30133;SDS011;16946;49.984;10.672;2023-05-07T02:52:13;10.53;;;9.57;;
30133;SDS011;16946;49.984;10.672;2023-05-07T02:52:44;10.87;;;9.97;;
30133;SDS011;16946;49.984;10.672;2023-05-07T02:53:14;11.07;;;10.07;;
30133;SDS011;16946;49.984;10.672;2023-05-07T02:53:45;10.23;;;9.43;;
30133;SDS011;16946;49.984;10.672;2023-05-07T02:54:15;12.70;;;11.07;;
30133;SDS011;16946;49.984;10.672;2023-05-07T02:54:47;11.38;;;10.38;;
30133;SDS011;16946;49.984;10.672;2023-05-07T02:55:18;11.20;;;10.13;;
30133;SDS011;16946;49.984;10.672;2023-05-07T02:55:49;11.93;;;10.73;;
30133;SDS011;16946;49.984;10.672;2023-05-07T02:56:19;12.27;;;10.07;;
30133;SDS011;16946;49.984;10.672;2023-05-07T02:56:51;11.55;;;10.43;;
30133;SDS011;16946;49.984;10.672;2023-05-07T02:57:21;11.33;;;10.20;;
30133;SDS011;16946;49.984;10.672;2023-05-07T02:57:52;12.50;;;11.30;;
30133;SDS011;16946;49.984;10.672;2023-05-07T02:58:22;11.23;;;10.23;;
30133;SDS011;16946;49.984;10.672;2023-05-07T02:58:53;12.07;;;11.07;;
30133;SDS011;16946;49.984;10.672;2023-05-07T02:59:23;11.27;;;10.17;;
30133;SDS011;16946;49.984;10.672;2023-05-07T02:59:57;11.60;;;10.48;;
30133;SDS011;16946;49.984;10.672;2023-05-07T03:00:28;11.02;;;10.15;;
30133;SDS011;16946;49.984;10.672;2023-05-07T03:00:58;12.70;;;11.40;;
30133;SDS011;16946;49.984;10.672;2023-05-07T03:01:29;11.80;;;10.70;;
30133;SDS011;16946;49.984;10.672;2023-05-07T03:01:59;12.60;;;11.43;;
30133;SDS011;16946;49.984;10.672;2023-05-07T03:02:30;11.80;;;10.80;;
30133;SDS011;16946;49.984;10.672;2023-05-07T03:03:00;11.70;;;10.70;;
30133;SDS011;16946;49.984;10.672;2023-05-07T03:03:31;11.23;;;10.30;;
30133;SDS011;16946;49.984;10.672;2023-05-07T03:04:01;12.17;;;11.07;;